Flight Track Log - Related Links

Times and Time Zones

All times are in EDT time to prevent confusion due to time zone crossing. See the SKW4542 flight status page for this flight to view local times or setup timezone preferences in your user account.


Time Position Orientation Groundspeed Altitude Reporting Facility
EDT Latitude Longitude Course Direction KTS MPH feet Rate Location/Type
Wed 07:19:17 PM 40.8075 -111.9619 13° North 169 194 5,200  Level Salt Lake Center
Wed 07:20:06 PM 40.8519 -111.9694 353° North 206 237 6,700 2,202 Climbing Salt Lake Center
Wed 07:21:06 PM 40.9183 -111.9781 354° North 247 284 9,200 2,132 Climbing Salt Lake Center
Wed 07:21:22 PM 40.9256 -111.9797 350° North 245 282 9,400 2,338 Climbing Salt Lake Center
Wed 07:22:00 PM 41.1820 -111.8558 43° Northeast  Level FlightAware Approximate
Wed 07:22:23 PM 41.0031 -111.9922 353° North 276 318 12,200  Level Salt Lake Center
Wed 07:23:00 PM 41.2746 -111.7794 21° North  Level FlightAware Approximate
Wed 07:23:25 PM 41.0856 -112.0014 355° North 306 352 14,000  Level Salt Lake Center
Wed 07:24:00 PM 41.3684 -111.6995 13° North  Level FlightAware Approximate
Wed 07:24:27 PM 41.1508 -111.9183 44° Northeast 321 369 16,200  Level Salt Lake Center
Wed 07:25:29 PM 41.2356 -111.8183 42° Northeast 337 388 18,300 1,887 Climbing Salt Lake Center
Wed 07:26:31 PM 41.3225 -111.7650 25° Northeast 343 395 20,100 1,548 Climbing Salt Lake Center
Wed 07:27:33 PM 41.4197 -111.7769 355° North 351 404 21,500 1,366 Climbing Salt Lake Center
Wed 07:28:34 PM 41.5208 -111.7906 354° North 364 419 22,900 1,317 Climbing Salt Lake Center
Wed 07:29:36 PM 41.6211 -111.8036 354° North 364 419 24,200 1,113 Climbing Salt Lake Center
Wed 07:30:38 PM 41.7247 -111.8172 354° North 374 430 25,200 871 Climbing Salt Lake Center
Wed 07:31:40 PM 41.8300 -111.8331 354° North 381 438 26,000 387 Climbing Salt Lake Center
Wed 07:32:42 PM 41.9642 -111.8506 354° North 404 465 26,000  Level Salt Lake Center
Wed 07:33:44 PM 42.0783 -111.8667 354° North 412 474 26,000  Level Salt Lake Center
Wed 07:34:46 PM 42.1931 -111.8819 354° North 414 476 26,000  Level Salt Lake Center
Wed 07:35:48 PM 42.3047 -111.8972 354° North 406 467 26,000  Level Salt Lake Center
Wed 07:36:50 PM 42.4172 -111.9144 354° North 405 466 26,000  Level Salt Lake Center
Wed 07:37:51 PM 42.5289 -111.9286 355° North 404 465 26,000 -1,073 Level Salt Lake Center
Wed 07:38:53 PM 42.6644 -111.9486 354° North 409 471 23,800 -2,274 Descending Salt Lake Center
Wed 07:39:55 PM 42.7617 -111.9603 355° North 396 456 21,300 -2,661 Descending Salt Lake Center
Wed 07:40:57 PM 42.8747 -111.9767 354° North 368 423 18,300 -2,613 Descending Salt Lake Center
Wed 07:41:59 PM 42.9675 -111.9897 354° North 354 407 15,900 -2,661 Descending Salt Lake Center
Wed 07:43:01 PM 43.0722 -112.0017 355° North 341 392 12,800 -1,887 Descending Salt Lake Center
Wed 07:44:03 PM 43.1558 -112.0156 353° North 322 371 12,000 -1,065 Descending Salt Lake Center
Wed 07:45:05 PM 43.2453 -112.0108 North 294 338 10,600 -1,306 Descending Salt Lake Center
Wed 07:46:07 PM 43.3200 -112.0086 North 288 331 9,300 -1,355 Descending Salt Lake Center
Wed 07:47:09 PM 43.3989 -112.0042 North 269 310 7,800 -1,452 Descending Salt Lake Center

Login

Don't have an account? Register now (free) for customized features, flight alerts, and more!